createdAt,value
2018-04-14T00:00:34.346Z,13.10
2018-04-14T00:03:02.608Z,13.10
2018-04-14T00:05:31.394Z,13.10
2018-04-14T00:07:59.488Z,13.00
2018-04-14T00:10:27.543Z,13.00
2018-04-14T00:12:55.672Z,13.00
2018-04-14T00:15:23.688Z,13.00
2018-04-14T00:17:52.541Z,13.00
2018-04-14T00:20:21.365Z,13.00
2018-04-14T00:22:49.476Z,13.00
2018-04-14T00:25:17.597Z,13.00
2018-04-14T00:27:46.474Z,13.00
2018-04-14T00:30:14.567Z,12.90
2018-04-14T00:32:42.614Z,12.90
2018-04-14T00:35:11.461Z,12.90
2018-04-14T00:37:39.501Z,12.80
2018-04-14T00:40:07.569Z,12.80
2018-04-14T00:42:35.651Z,12.80
2018-04-14T00:45:03.728Z,12.80
2018-04-14T00:47:31.774Z,12.80
2018-04-14T00:49:59.862Z,12.80
2018-04-14T00:52:27.906Z,12.70
2018-04-14T00:54:55.984Z,12.80
2018-04-14T00:57:24.855Z,12.80
2018-04-14T00:59:53.692Z,12.80
2018-04-14T01:02:21.785Z,12.80
2018-04-14T01:04:49.850Z,12.70
2018-04-14T01:07:17.924Z,12.70
2018-04-14T01:09:46.012Z,12.70
2018-04-14T01:12:14.063Z,12.70
2018-04-14T01:14:42.196Z,12.70
2018-04-14T01:17:10.264Z,12.70
2018-04-14T01:19:39.064Z,12.70
2018-04-14T01:22:07.901Z,12.70
2018-04-14T01:24:35.950Z,12.70
2018-04-14T01:27:04.062Z,12.70
2018-04-14T01:29:32.109Z,12.70
2018-04-14T01:32:00.188Z,12.70
2018-04-14T01:34:28.246Z,12.60
2018-04-14T01:36:57.876Z,12.70
2018-04-14T01:39:25.954Z,12.60
2018-04-14T01:41:54.793Z,12.60
2018-04-14T01:44:22.873Z,12.60
2018-04-14T01:46:50.888Z,12.60
2018-04-14T01:49:18.985Z,12.50
2018-04-14T01:51:47.031Z,12.50
2018-04-14T01:54:15.874Z,12.50
2018-04-14T01:56:43.935Z,12.60
2018-04-14T01:59:12.077Z,12.50
2018-04-14T02:01:40.115Z,12.60
2018-04-14T02:04:08.201Z,12.50
2018-04-14T02:06:36.251Z,12.50
2018-04-14T02:09:04.325Z,12.40
2018-04-14T02:11:32.376Z,12.40
2018-04-14T02:14:00.458Z,12.40
2018-04-14T02:16:28.509Z,12.40
2018-04-14T02:18:56.599Z,12.40
2018-04-14T02:21:24.689Z,12.40
2018-04-14T02:23:52.733Z,12.30
2018-04-14T02:26:20.819Z,12.30
2018-04-14T02:28:49.734Z,12.20
2018-04-14T02:31:17.793Z,12.30
2018-04-14T02:33:45.874Z,12.30
2018-04-14T02:36:13.924Z,12.30
2018-04-14T02:38:41.968Z,12.20
2018-04-14T02:41:10.059Z,12.20
2018-04-14T02:43:38.930Z,12.30
2018-04-14T02:46:06.962Z,12.30
2018-04-14T02:48:35.012Z,12.30
2018-04-14T02:51:03.099Z,12.30
2018-04-14T02:53:31.131Z,12.30
2018-04-14T02:55:59.216Z,12.30
2018-04-14T02:58:28.795Z,12.30
2018-04-14T03:00:56.907Z,12.30
2018-04-14T03:03:24.987Z,12.30
2018-04-14T03:05:53.066Z,12.30
2018-04-14T03:08:21.885Z,12.30
2018-04-14T03:10:49.925Z,12.30
2018-04-14T03:13:18.782Z,12.30
2018-04-14T03:15:46.833Z,12.40
2018-04-14T03:18:14.887Z,12.30
2018-04-14T03:20:42.933Z,12.30
2018-04-14T03:23:11.737Z,12.30
2018-04-14T03:25:39.781Z,12.30
2018-04-14T03:28:08.630Z,12.30
2018-04-14T03:30:36.724Z,12.30
2018-04-14T03:33:04.766Z,12.30
2018-04-14T03:35:32.811Z,12.30
2018-04-14T03:38:00.903Z,12.30
2018-04-14T03:42:58.337Z,12.30
2018-04-14T03:45:27.181Z,12.30
2018-04-14T03:47:55.261Z,12.30
2018-04-14T03:50:23.379Z,12.30
2018-04-14T03:52:52.192Z,12.30
2018-04-14T03:55:20.364Z,12.30
2018-04-14T03:57:49.158Z,12.30
2018-04-14T04:00:17.238Z,12.30
2018-04-14T04:02:45.306Z,12.30
2018-04-14T04:05:13.398Z,12.30
2018-04-14T04:07:41.455Z,12.30
2018-04-14T04:10:10.214Z,12.20
2018-04-14T04:12:38.279Z,12.20
2018-04-14T04:15:07.099Z,12.20
2018-04-14T04:17:35.162Z,12.20
2018-04-14T04:20:15.322Z,12.20
2018-04-14T04:22:55.111Z,12.10
2018-04-14T04:25:39.822Z,12.10
2018-04-14T04:28:07.926Z,12.10
2018-04-14T04:30:36.048Z,12.10
2018-04-14T04:33:04.079Z,12.10
2018-04-14T04:35:32.110Z,12.10
2018-04-14T04:38:00.162Z,12.10
2018-04-14T04:40:28.207Z,12.10
2018-04-14T04:42:57.053Z,12.10
2018-04-14T04:45:25.127Z,12.20
2018-04-14T04:47:53.195Z,12.20
2018-04-14T04:50:21.261Z,12.20
2018-04-14T04:52:49.365Z,12.20
2018-04-14T04:55:17.417Z,12.20
2018-04-14T04:57:45.459Z,12.20
2018-04-14T05:00:13.546Z,12.20
2018-04-14T05:02:42.325Z,12.20
2018-04-14T05:05:11.406Z,12.20
2018-04-14T05:07:39.494Z,12.20
2018-04-14T05:10:07.547Z,12.20
2018-04-14T05:12:36.356Z,12.30
2018-04-14T05:15:04.416Z,12.30
2018-04-14T05:17:32.472Z,12.30
2018-04-14T05:20:01.280Z,12.30
2018-04-14T05:22:29.368Z,12.30
2018-04-14T05:24:58.130Z,12.40
2018-04-14T05:27:26.191Z,12.40
2018-04-14T05:29:55.030Z,12.40
2018-04-14T05:32:23.109Z,12.40
2018-04-14T05:34:51.151Z,12.40
2018-04-14T05:37:19.206Z,12.50
2018-04-14T05:39:48.043Z,12.50
2018-04-14T05:42:16.132Z,12.50
2018-04-14T05:44:44.202Z,12.50
2018-04-14T05:47:12.731Z,12.50
2018-04-14T05:49:41.505Z,12.60
2018-04-14T05:52:09.571Z,12.60
2018-04-14T05:54:38.390Z,12.60
2018-04-14T05:57:06.473Z,12.70
2018-04-14T05:59:34.612Z,12.70
2018-04-14T06:02:02.628Z,12.80
2018-04-14T06:04:31.453Z,12.80
2018-04-14T06:07:00.285Z,12.90
2018-04-14T06:09:28.369Z,13.00
2018-04-14T06:11:56.443Z,13.00
2018-04-14T06:14:24.513Z,13.20
2018-04-14T06:16:52.566Z,13.40
2018-04-14T06:19:20.614Z,13.40
2018-04-14T06:21:48.674Z,13.50
2018-04-14T06:24:17.532Z,13.50
2018-04-14T06:26:45.581Z,13.50
2018-04-14T06:29:13.716Z,13.50
2018-04-14T06:31:41.759Z,13.50
2018-04-14T06:34:09.832Z,13.50
2018-04-14T06:36:37.914Z,13.50
2018-04-14T06:39:07.151Z,13.60
2018-04-14T06:41:35.570Z,13.60
2018-04-14T06:44:03.723Z,13.50
2018-04-14T06:46:32.503Z,13.40
2018-04-14T06:49:00.596Z,13.30
2018-04-14T06:51:29.045Z,13.30
2018-04-14T06:53:57.098Z,13.20
2018-04-14T06:56:25.188Z,13.20
2018-04-14T06:58:53.980Z,13.20
2018-04-14T07:01:21.993Z,13.20
2018-04-14T07:03:50.442Z,13.20
2018-04-14T07:06:21.513Z,13.30
2018-04-14T07:08:49.580Z,13.40
2018-04-14T07:11:17.653Z,13.40
2018-04-14T07:13:45.829Z,13.40
2018-04-14T07:16:17.797Z,13.50
2018-04-14T07:18:46.277Z,13.50
2018-04-14T07:21:25.753Z,13.50
2018-04-14T07:24:12.714Z,13.60
2018-04-14T07:26:41.662Z,13.60
2018-04-14T07:32:02.021Z,14.00
2018-04-14T07:34:34.026Z,14.80
2018-04-14T07:37:04.510Z,15.40
2018-04-14T07:39:32.573Z,15.90
2018-04-14T07:42:01.382Z,16.50
2018-04-14T07:44:30.362Z,17.10
2018-04-14T07:46:59.225Z,17.70
2018-04-14T07:49:27.271Z,18.20
2018-04-14T07:51:55.345Z,18.60
2018-04-14T07:54:23.439Z,19.50
2018-04-14T07:56:51.585Z,19.80
2018-04-14T07:59:24.570Z,19.80
2018-04-14T08:01:53.394Z,20.30
2018-04-14T08:04:21.485Z,21.10
2018-04-14T08:06:50.404Z,21.70
2018-04-14T08:09:18.461Z,21.90
2018-04-14T08:11:46.529Z,21.90
2018-04-14T08:14:14.578Z,22.00
2018-04-14T08:16:42.637Z,22.20
2018-04-14T08:19:10.713Z,22.40
2018-04-14T08:21:38.763Z,22.30
2018-04-14T08:24:06.823Z,22.30
2018-04-14T08:26:34.922Z,21.70
2018-04-14T08:29:02.949Z,22.10
2018-04-14T08:31:31.801Z,21.70
2018-04-14T08:34:00.630Z,21.00
2018-04-14T08:36:30.389Z,20.10
2018-04-14T08:38:58.429Z,19.60
2018-04-14T08:41:26.920Z,19.70
2018-04-14T08:43:54.993Z,20.20
2018-04-14T08:46:23.066Z,21.20
2018-04-14T08:48:51.144Z,24.60
2018-04-14T08:51:19.232Z,26.00
2018-04-14T08:53:47.717Z,26.80
2018-04-14T08:56:16.538Z,26.90
2018-04-14T08:58:45.420Z,27.10
2018-04-14T09:01:13.906Z,27.10
2018-04-14T09:03:45.483Z,27.60
2018-04-14T09:06:14.341Z,27.30
2018-04-14T09:08:42.380Z,26.70
2018-04-14T09:11:10.538Z,25.80
2018-04-14T09:13:38.597Z,24.70
2018-04-14T09:16:06.692Z,23.10
2018-04-14T09:18:35.530Z,21.80
2018-04-14T09:21:04.363Z,20.80
2018-04-14T09:23:32.405Z,20.30
2018-04-14T09:26:01.254Z,20.40
2018-04-14T09:28:29.594Z,20.80
2018-04-14T09:30:58.548Z,21.20
2018-04-14T09:33:27.361Z,21.20
2018-04-14T09:35:55.459Z,21.10
2018-04-14T09:38:23.516Z,20.60
2018-04-14T09:40:51.603Z,20.20
2018-04-14T09:43:20.797Z,20.50
2018-04-14T09:45:48.897Z,20.90
2018-04-14T09:48:16.918Z,20.50
2018-04-14T09:50:45.754Z,20.20
2018-04-14T09:53:13.830Z,19.90
2018-04-14T09:55:41.893Z,19.50
2018-04-14T09:58:09.984Z,19.10
2018-04-14T10:00:43.847Z,18.90
2018-04-14T10:03:17.941Z,19.00
2018-04-14T10:05:46.770Z,19.20
2018-04-14T10:08:14.845Z,19.70
2018-04-14T10:10:43.755Z,20.70
2018-04-14T10:13:11.826Z,21.70
2018-04-14T10:15:39.892Z,23.20
2018-04-14T10:18:07.937Z,24.20
2018-04-14T10:20:36.017Z,24.30
2018-04-14T10:23:04.087Z,23.90
2018-04-14T10:25:32.185Z,23.90
2018-04-14T10:28:00.316Z,22.60
2018-04-14T10:30:29.491Z,22.40
2018-04-14T10:32:57.621Z,22.60
2018-04-14T10:35:25.680Z,23.20
2018-04-14T10:37:53.882Z,23.90
2018-04-14T10:40:24.169Z,24.30
2018-04-14T10:42:53.391Z,24.20
2018-04-14T10:45:22.987Z,24.10
2018-04-14T10:47:53.913Z,24.30
2018-04-14T10:50:23.521Z,24.50
2018-04-14T10:52:54.028Z,24.60
2018-04-14T10:55:22.906Z,24.50
2018-04-14T10:57:52.886Z,24.10
2018-04-14T11:00:21.633Z,23.20
2018-04-14T11:02:50.757Z,22.60
2018-04-14T11:05:20.475Z,22.30
2018-04-14T11:07:48.587Z,22.40
2018-04-14T11:10:17.229Z,22.60
2018-04-14T11:12:45.325Z,22.90
2018-04-14T11:15:14.166Z,23.30
2018-04-14T11:17:42.197Z,23.30
2018-04-14T11:20:11.039Z,23.30
2018-04-14T11:22:42.050Z,23.20
2018-04-14T11:25:10.984Z,23.10
2018-04-14T11:27:41.050Z,22.90
2018-04-14T11:30:11.020Z,22.50
2018-04-14T11:32:40.832Z,22.20
2018-04-14T11:35:09.071Z,21.90
2018-04-14T11:37:41.273Z,21.60
2018-04-14T11:40:12.412Z,21.60
2018-04-14T11:42:40.906Z,21.90
2018-04-14T11:45:12.091Z,22.30
2018-04-14T11:47:42.343Z,22.70
2018-04-14T11:50:10.407Z,23.00
2018-04-14T11:52:40.201Z,23.00
2018-04-14T11:55:09.192Z,23.20
2018-04-14T12:00:57.198Z,22.60
2018-04-14T12:03:26.575Z,22.40
2018-04-14T12:05:54.608Z,22.40
2018-04-14T12:08:23.453Z,22.30
2018-04-14T12:10:52.525Z,22.40
2018-04-14T12:13:21.121Z,22.40
2018-04-14T12:15:49.174Z,22.60
2018-04-14T12:18:18.252Z,23.10
2018-04-14T12:20:47.085Z,23.10
2018-04-14T12:23:15.162Z,23.10
2018-04-14T12:25:43.228Z,23.10
2018-04-14T12:28:11.289Z,23.30
2018-04-14T12:30:39.420Z,23.40
2018-04-14T12:33:07.421Z,23.40
2018-04-14T12:35:35.502Z,23.40
2018-04-14T12:38:03.575Z,23.50
2018-04-14T12:40:31.662Z,23.60
2018-04-14T12:42:59.733Z,23.80
2018-04-14T12:45:27.798Z,23.70
2018-04-14T12:47:56.410Z,23.60
2018-04-14T12:50:25.246Z,23.60
2018-04-14T12:52:53.323Z,23.20
2018-04-14T12:55:21.396Z,23.20
2018-04-14T12:57:50.200Z,23.00
2018-04-14T13:00:18.429Z,23.00
2018-04-14T13:02:47.286Z,22.90
2018-04-14T13:05:15.389Z,22.80
2018-04-14T13:07:43.874Z,22.60
2018-04-14T13:10:12.682Z,22.60
2018-04-14T13:12:41.351Z,22.80
2018-04-14T13:15:10.186Z,22.70
2018-04-14T13:17:38.285Z,22.60
2018-04-14T13:20:07.126Z,22.50
2018-04-14T13:22:35.185Z,22.60
2018-04-14T13:25:06.238Z,22.80
2018-04-14T13:27:34.708Z,22.90
2018-04-14T13:30:04.269Z,22.90
2018-04-14T13:32:34.597Z,22.90
2018-04-14T13:35:06.351Z,22.90
2018-04-14T13:37:34.431Z,22.90
2018-04-14T13:40:02.938Z,22.90
2018-04-14T13:42:31.010Z,22.80
2018-04-14T13:44:59.080Z,22.70
2018-04-14T13:47:27.146Z,22.50
2018-04-14T13:49:55.214Z,22.40
2018-04-14T13:52:24.139Z,22.30
2018-04-14T13:55:08.279Z,22.20
2018-04-14T13:57:52.198Z,22.00
2018-04-14T14:00:35.193Z,21.90
2018-04-14T14:03:19.318Z,21.80
2018-04-14T14:06:02.285Z,21.70
2018-04-14T14:08:45.265Z,21.60
2018-04-14T14:11:28.433Z,21.50
2018-04-14T14:14:11.402Z,21.40
2018-04-14T14:16:54.436Z,21.30
2018-04-14T14:19:38.232Z,21.20
2018-04-14T14:22:21.179Z,21.20
2018-04-14T14:25:04.164Z,21.10
2018-04-14T14:27:47.183Z,20.90
2018-04-14T14:30:30.190Z,20.90
2018-04-14T14:33:14.012Z,20.90
2018-04-14T14:35:56.987Z,21.00
2018-04-14T14:38:40.791Z,21.10
2018-04-14T14:41:23.790Z,21.10
2018-04-14T14:44:07.500Z,21.10
2018-04-14T14:46:51.337Z,21.00
2018-04-14T14:49:34.314Z,21.00
2018-04-14T14:52:17.286Z,20.90
2018-04-14T14:55:00.294Z,20.90
2018-04-14T14:57:44.035Z,20.80
2018-04-14T15:00:27.814Z,20.80
2018-04-14T15:03:10.787Z,20.70
2018-04-14T15:05:53.811Z,20.70
2018-04-14T15:08:37.525Z,20.80
2018-04-14T15:11:20.535Z,20.80
2018-04-14T15:14:03.718Z,20.90
2018-04-14T15:16:46.693Z,20.80
2018-04-14T15:19:29.652Z,20.60
2018-04-14T15:22:12.658Z,20.40
2018-04-14T15:24:56.413Z,20.20
2018-04-14T15:27:40.215Z,20.00
2018-04-14T15:30:23.184Z,19.90
2018-04-14T15:33:06.191Z,19.90
2018-04-14T15:35:49.918Z,19.80
2018-04-14T15:38:33.705Z,19.70
2018-04-14T15:41:16.671Z,19.60
2018-04-14T15:44:00.460Z,19.50
2018-04-14T15:46:44.632Z,19.40
2018-04-14T15:49:27.607Z,19.40
2018-04-14T15:52:10.627Z,19.30
2018-04-14T15:57:37.994Z,19.00
2018-04-14T16:00:20.948Z,18.90
2018-04-14T16:03:04.699Z,18.80
2018-04-14T16:05:47.671Z,18.80
2018-04-14T16:08:31.436Z,18.80
2018-04-14T16:11:16.237Z,18.80
2018-04-14T16:13:59.267Z,18.80
2018-04-14T16:16:42.215Z,18.70
2018-04-14T16:22:09.496Z,18.60
2018-04-14T16:24:53.604Z,18.50
2018-04-14T16:27:37.027Z,18.40
2018-04-14T16:30:20.008Z,18.30
2018-04-14T16:33:03.339Z,18.30
2018-04-14T16:35:46.681Z,18.30
2018-04-14T16:38:31.186Z,18.20
2018-04-14T16:41:15.945Z,18.20
2018-04-14T16:43:58.946Z,18.00
2018-04-14T16:46:41.917Z,18.00
2018-04-14T16:49:24.937Z,17.90
2018-04-14T16:52:08.711Z,17.80
2018-04-14T16:54:51.681Z,17.70
2018-04-14T16:57:35.407Z,17.70
2018-04-14T17:00:18.458Z,17.70
2018-04-14T17:03:01.479Z,17.60
2018-04-14T17:05:44.512Z,17.60
2018-04-14T17:08:27.483Z,17.50
2018-04-14T17:11:12.205Z,17.30
2018-04-14T17:13:55.816Z,17.20
2018-04-14T17:16:39.628Z,17.10
2018-04-14T17:19:22.601Z,17.00
2018-04-14T17:22:05.592Z,17.00
2018-04-14T17:24:49.411Z,16.90
2018-04-14T17:27:32.357Z,16.90
2018-04-14T17:30:16.093Z,16.80
2018-04-14T17:32:59.834Z,16.70
2018-04-14T17:35:43.620Z,16.60
2018-04-14T17:38:27.404Z,16.60
2018-04-14T17:41:12.351Z,16.50
2018-04-14T17:43:55.749Z,16.50
2018-04-14T17:46:42.114Z,16.40
2018-04-14T17:49:25.902Z,16.40
2018-04-14T17:52:09.736Z,16.30
2018-04-14T17:54:53.112Z,16.30
2018-04-14T17:57:36.126Z,16.10
2018-04-14T18:00:19.215Z,16.00
2018-04-14T18:03:02.853Z,15.90
2018-04-14T18:05:45.834Z,15.90
2018-04-14T18:08:29.224Z,15.80
2018-04-14T18:11:12.206Z,15.70
2018-04-14T18:13:55.740Z,15.60
2018-04-14T18:16:39.016Z,15.60
2018-04-14T18:19:22.091Z,15.50
2018-04-14T18:22:05.945Z,15.50
2018-04-14T18:24:48.911Z,15.50
2018-04-14T18:27:31.881Z,15.50
2018-04-14T18:30:15.666Z,15.50
2018-04-14T18:32:59.111Z,15.50
2018-04-14T18:35:43.247Z,15.50
2018-04-14T18:38:26.303Z,15.50
2018-04-14T18:41:10.915Z,15.40
2018-04-14T18:43:54.498Z,15.30
2018-04-14T18:46:37.490Z,15.20
2018-04-14T18:49:21.233Z,15.20
2018-04-14T18:52:05.029Z,15.10
2018-04-14T18:54:49.609Z,15.10
2018-04-14T18:57:32.611Z,15.00
2018-04-14T19:00:16.790Z,15.00
2018-04-14T19:03:01.920Z,15.00
2018-04-14T19:05:45.646Z,14.90
2018-04-14T19:08:28.874Z,14.80
2018-04-14T19:11:12.604Z,14.80
2018-04-14T19:13:55.577Z,14.80
2018-04-14T19:16:38.590Z,14.80
2018-04-14T19:19:21.658Z,14.80
2018-04-14T19:22:05.062Z,14.70
2018-04-14T19:24:49.709Z,14.70
2018-04-14T19:27:32.945Z,14.60
2018-04-14T19:30:16.114Z,14.60
2018-04-14T19:32:59.115Z,14.50
2018-04-14T19:35:42.761Z,14.50
2018-04-14T19:38:25.744Z,14.40
2018-04-14T19:41:08.978Z,14.30
2018-04-14T19:43:52.865Z,14.30
2018-04-14T19:46:36.785Z,14.30
2018-04-14T19:52:04.521Z,14.30
2018-04-14T19:54:47.502Z,14.20
2018-04-14T19:57:30.507Z,14.20
2018-04-14T20:00:14.443Z,14.20
2018-04-14T20:02:57.382Z,14.10
2018-04-14T20:05:41.130Z,14.10
2018-04-14T20:08:24.511Z,14.00
2018-04-14T20:11:07.511Z,14.10
2018-04-14T20:16:34.767Z,14.00
2018-04-14T20:19:17.770Z,13.90
2018-04-14T20:22:00.765Z,13.80
2018-04-14T20:24:43.739Z,13.80
2018-04-14T20:27:26.728Z,13.80
2018-04-14T20:30:10.484Z,13.80
2018-04-14T20:32:53.470Z,13.80
2018-04-14T20:35:36.430Z,13.80
2018-04-14T20:38:19.422Z,13.80
2018-04-14T20:41:03.952Z,13.80
2018-04-14T20:43:46.894Z,13.80
2018-04-14T20:46:31.061Z,13.70
2018-04-14T20:49:14.039Z,13.70
2018-04-14T20:51:56.990Z,13.70
2018-04-14T20:54:41.925Z,13.60
2018-04-14T20:57:25.300Z,13.70
2018-04-14T21:00:08.310Z,13.60
2018-04-14T21:02:52.070Z,13.60
2018-04-14T21:05:35.067Z,13.60
2018-04-14T21:08:18.826Z,13.60
2018-04-14T21:11:01.819Z,13.50
2018-04-14T21:13:44.824Z,13.50
2018-04-14T21:16:27.837Z,13.50
2018-04-14T21:19:10.837Z,13.50
2018-04-14T21:21:55.474Z,13.50
2018-04-14T21:24:39.194Z,13.40
2018-04-14T21:27:22.966Z,13.40
2018-04-14T21:30:05.969Z,13.40
2018-04-14T21:32:48.948Z,13.40
2018-04-14T21:35:31.956Z,13.40
2018-04-14T21:38:15.686Z,13.30
2018-04-14T21:40:58.675Z,13.30
2018-04-14T21:43:41.654Z,13.30
2018-04-14T21:46:24.658Z,13.30
2018-04-14T21:49:07.623Z,13.20
2018-04-14T21:54:34.840Z,13.10
2018-04-14T21:57:17.813Z,13.10
2018-04-14T22:00:01.593Z,13.10
2018-04-14T22:02:44.561Z,13.10
2018-04-14T22:05:27.545Z,13.10
2018-04-14T22:08:10.507Z,13.00
2018-04-14T22:10:55.015Z,13.00
2018-04-14T22:13:37.982Z,13.10
2018-04-14T22:16:21.733Z,13.10
2018-04-14T22:19:05.473Z,13.00
2018-04-14T22:21:49.990Z,13.00
2018-04-14T22:24:32.958Z,13.00
2018-04-14T22:27:16.737Z,13.00
2018-04-14T22:29:59.743Z,13.10
2018-04-14T22:32:42.739Z,13.10
2018-04-14T22:35:26.477Z,13.00
2018-04-14T22:38:09.461Z,12.90
2018-04-14T22:40:52.480Z,12.90
2018-04-14T22:43:35.469Z,12.90
2018-04-14T22:46:20.288Z,12.90
2018-04-14T22:49:03.252Z,10.10
2018-04-14T22:51:46.252Z,12.80
2018-04-14T22:54:30.000Z,12.80
2018-04-14T22:57:12.972Z,12.70
2018-04-14T22:59:56.347Z,12.70
2018-04-14T23:02:39.333Z,12.70
2018-04-14T23:05:22.305Z,12.70
2018-04-14T23:08:05.690Z,12.60
2018-04-14T23:10:49.450Z,12.70
2018-04-14T23:13:35.417Z,12.70
2018-04-14T23:16:18.409Z,12.80
2018-04-14T23:19:01.388Z,12.80
2018-04-14T23:21:44.369Z,12.80
2018-04-14T23:24:27.342Z,12.70
2018-04-14T23:27:10.360Z,12.70
2018-04-14T23:29:53.331Z,12.80
2018-04-14T23:32:36.320Z,12.90
2018-04-14T23:35:21.027Z,12.90
2018-04-14T23:38:05.543Z,12.90
2018-04-14T23:40:48.518Z,12.90
2018-04-14T23:43:32.266Z,12.90
2018-04-14T23:46:15.254Z,12.90
2018-04-14T23:48:58.275Z,12.90
2018-04-14T23:51:41.234Z,12.80
2018-04-14T23:54:24.202Z,12.70
2018-04-14T23:57:07.174Z,12.70
2018-04-14T23:59:50.169Z,12.60
